createdAt,value
2023-03-19T00:00:08.598Z,100621.94
2023-03-19T00:01:31.462Z,100622.73
2023-03-19T00:02:34.870Z,100624.06
2023-03-19T00:03:37.731Z,100625.05
2023-03-19T00:04:40.565Z,100622.19
2023-03-19T00:05:51.673Z,100625.94
2023-03-19T00:06:54.847Z,100625.75
2023-03-19T00:07:57.641Z,100622.66
2023-03-19T00:09:00.683Z,100622.73
2023-03-19T00:10:03.616Z,100631.71
2023-03-19T00:11:10.699Z,100625.73
2023-03-19T00:12:13.597Z,100628.58
2023-03-19T00:13:16.818Z,100620.69
2023-03-19T00:14:20.149Z,100620.77
2023-03-19T00:15:22.954Z,100621.14
2023-03-19T00:16:25.861Z,100618.38
2023-03-19T00:17:28.689Z,100617.46
2023-03-19T00:18:31.833Z,100619.02
2023-03-19T00:19:34.683Z,100616.48
2023-03-19T00:20:37.405Z,100614.25
2023-03-19T00:21:40.618Z,100609.48
2023-03-19T00:22:43.365Z,100608.98
2023-03-19T00:23:46.478Z,100609.60
2023-03-19T00:24:49.302Z,100617.45
2023-03-19T00:25:54.651Z,100611.35
2023-03-19T00:26:57.792Z,100605.38
2023-03-19T00:28:01.650Z,100608.93
2023-03-19T00:29:05.713Z,100614.31
2023-03-19T00:30:09.154Z,100615.64
2023-03-19T00:31:15.297Z,100608.92
2023-03-19T00:32:18.299Z,100610.71
2023-03-19T00:33:21.354Z,100604.73
2023-03-19T00:34:24.274Z,100610.76
2023-03-19T00:35:27.228Z,100615.95
2023-03-19T00:36:30.392Z,100612.17
2023-03-19T00:37:34.459Z,100608.83
2023-03-19T00:38:37.864Z,100607.80
2023-03-19T00:39:40.601Z,100608.35
2023-03-19T00:40:43.841Z,100609.24
2023-03-19T00:41:50.697Z,100609.73
2023-03-19T00:42:53.782Z,100613.36
2023-03-19T00:43:58.044Z,100610.09
2023-03-19T00:45:00.997Z,100608.19
2023-03-19T00:46:04.799Z,100613.85
2023-03-19T00:47:08.957Z,100615.37
2023-03-19T00:48:12.539Z,100611.84
2023-03-19T00:49:15.462Z,100609.84
2023-03-19T00:50:18.313Z,100612.03
2023-03-19T00:51:23.570Z,100613.65
2023-03-19T00:52:26.433Z,100614.16
2023-03-19T00:53:29.244Z,100608.27
2023-03-19T00:54:32.512Z,100605.05
2023-03-19T00:55:36.130Z,100610.09
2023-03-19T00:56:39.135Z,100606.38
2023-03-19T00:57:41.910Z,100604.10
2023-03-19T00:58:45.546Z,100608.14
2023-03-19T00:59:48.377Z,100611.05
2023-03-19T01:00:55.098Z,100614.27
2023-03-19T01:01:58.244Z,100614.90
2023-03-19T01:03:01.551Z,100611.02
2023-03-19T01:04:05.787Z,100612.52
2023-03-19T01:05:09.666Z,100604.98
2023-03-19T01:06:13.321Z,100615.52
2023-03-19T01:07:16.266Z,100613.61
2023-03-19T01:08:19.612Z,100613.14
2023-03-19T01:09:22.982Z,100609.79
2023-03-19T01:10:26.523Z,100605.73
2023-03-19T01:11:29.718Z,100604.05
2023-03-19T01:12:32.516Z,100605.38
2023-03-19T01:13:36.123Z,100606.61
2023-03-19T01:14:38.938Z,100602.95
2023-03-19T01:15:43.655Z,100607.52
2023-03-19T01:16:46.587Z,100603.07
2023-03-19T01:17:49.710Z,100604.52
2023-03-19T01:18:52.851Z,100609.41
2023-03-19T01:19:56.491Z,100609.83
2023-03-19T01:20:59.827Z,100608.44
2023-03-19T01:22:04.552Z,100611.52
2023-03-19T01:23:08.636Z,100613.21
2023-03-19T01:24:13.147Z,100614.52
2023-03-19T01:25:16.601Z,100615.18
2023-03-19T01:26:29.686Z,100620.25
2023-03-19T01:27:40.918Z,100623.92
2023-03-19T01:28:44.649Z,100616.96
2023-03-19T01:29:48.233Z,100624.88
2023-03-19T01:31:01.948Z,100622.12
2023-03-19T01:32:23.309Z,100619.57
2023-03-19T01:33:54.569Z,100617.34
2023-03-19T01:35:30.292Z,100617.67
2023-03-19T01:36:33.455Z,100626.06
2023-03-19T01:37:38.463Z,100627.46
2023-03-19T01:38:41.229Z,100619.46
2023-03-19T01:39:49.144Z,100626.27
2023-03-19T01:40:52.341Z,100623.64
2023-03-19T01:41:55.545Z,100620.76
2023-03-19T01:43:22.190Z,100626.86
2023-03-19T01:44:38.468Z,100625.11
2023-03-19T01:46:37.119Z,100621.83
2023-03-19T01:47:58.484Z,100619.07
2023-03-19T01:49:23.549Z,100625.81
2023-03-19T01:50:45.491Z,100626.39
2023-03-19T01:52:21.583Z,100619.38
2023-03-19T01:53:36.497Z,100617.91
2023-03-19T01:54:52.626Z,100626.16
2023-03-19T01:56:34.865Z,100617.99
2023-03-19T01:57:45.124Z,100625.48
2023-03-19T01:59:15.453Z,100625.06
2023-03-19T02:00:42.606Z,100619.38
2023-03-19T02:01:55.103Z,100615.35
2023-03-19T02:03:00.849Z,100620.91
2023-03-19T02:04:35.814Z,100613.83
2023-03-19T02:05:41.436Z,100615.27
2023-03-19T02:06:46.799Z,100620.89
2023-03-19T02:07:49.636Z,100616.02
2023-03-19T02:08:53.056Z,100615.80
2023-03-19T02:09:56.570Z,100618.71
2023-03-19T02:11:00.484Z,100612.48
2023-03-19T02:12:04.471Z,100615.69
2023-03-19T02:13:07.530Z,100615.19
2023-03-19T02:14:10.492Z,100623.26
2023-03-19T02:15:13.524Z,100620.67
2023-03-19T02:16:16.533Z,100615.02
2023-03-19T02:17:22.818Z,100617.54
2023-03-19T02:18:25.757Z,100612.78
2023-03-19T02:19:40.709Z,100613.05
2023-03-19T02:21:07.479Z,100609.45
2023-03-19T02:22:12.054Z,100609.66
2023-03-19T02:23:22.913Z,100608.94
2023-03-19T02:24:38.755Z,100612.22
2023-03-19T02:25:46.248Z,100606.40
2023-03-19T02:26:50.766Z,100602.25
2023-03-19T02:27:54.166Z,100605.38
2023-03-19T02:28:57.220Z,100600.11
2023-03-19T02:30:26.166Z,100610.48
2023-03-19T02:31:30.099Z,100603.77
2023-03-19T02:32:33.091Z,100607.36
2023-03-19T02:33:36.507Z,100605.91
2023-03-19T02:34:42.278Z,100608.05
2023-03-19T02:35:51.977Z,100609.36
2023-03-19T02:37:02.526Z,100612.95
2023-03-19T02:38:06.044Z,100614.63
2023-03-19T02:39:21.142Z,100609.77
2023-03-19T02:40:29.458Z,100614.42
2023-03-19T02:41:34.441Z,100618.58
2023-03-19T02:42:37.888Z,100617.42
2023-03-19T02:43:42.191Z,100618.17
2023-03-19T02:44:46.284Z,100620.80
2023-03-19T02:45:49.608Z,100625.80
2023-03-19T02:46:52.387Z,100624.44
2023-03-19T02:47:56.080Z,100626.13
2023-03-19T02:48:59.123Z,100623.08
2023-03-19T02:50:02.204Z,100621.59
2023-03-19T02:51:05.838Z,100626.41
2023-03-19T02:52:09.253Z,100623.61
2023-03-19T02:53:12.144Z,100623.09
2023-03-19T02:54:14.922Z,100627.41
2023-03-19T02:55:18.624Z,100627.08
2023-03-19T02:56:21.459Z,100624.42
2023-03-19T02:57:24.584Z,100625.98
2023-03-19T02:58:27.342Z,100629.31
2023-03-19T02:59:30.535Z,100625.77
2023-03-19T03:00:34.299Z,100623.80
2023-03-19T03:01:37.498Z,100623.09
2023-03-19T03:02:40.740Z,100626.85
2023-03-19T03:03:43.561Z,100626.05
2023-03-19T03:04:46.513Z,100626.13
2023-03-19T03:05:49.262Z,100626.09
2023-03-19T03:06:52.179Z,100624.65
2023-03-19T03:07:55.040Z,100624.73
2023-03-19T03:08:58.026Z,100628.08
2023-03-19T03:10:02.203Z,100627.91
2023-03-19T03:11:05.323Z,100626.23
2023-03-19T03:12:08.635Z,100629.12
2023-03-19T03:13:11.494Z,100628.01
2023-03-19T03:14:14.328Z,100625.25
2023-03-19T03:15:18.005Z,100625.05
2023-03-19T03:16:21.739Z,100623.15
2023-03-19T03:17:24.854Z,100620.86
2023-03-19T03:18:28.003Z,100626.36
2023-03-19T03:19:30.965Z,100629.41
2023-03-19T03:20:34.341Z,100628.47
2023-03-19T03:21:37.634Z,100630.48
2023-03-19T03:22:40.917Z,100626.04
2023-03-19T03:23:43.801Z,100626.98
2023-03-19T03:24:46.611Z,100624.89
2023-03-19T03:25:51.413Z,100620.02
2023-03-19T03:26:54.295Z,100621.05
2023-03-19T03:27:57.119Z,100618.89
2023-03-19T03:29:00.245Z,100617.87
2023-03-19T03:30:05.556Z,100618.64
2023-03-19T03:31:10.514Z,100620.99
2023-03-19T03:32:16.077Z,100615.39
2023-03-19T03:33:19.087Z,100618.15
2023-03-19T03:34:21.971Z,100617.33
2023-03-19T03:35:25.586Z,100615.02
2023-03-19T03:36:28.887Z,100613.46
2023-03-19T03:37:31.898Z,100616.30
2023-03-19T03:38:34.714Z,100616.80
2023-03-19T03:39:37.864Z,100616.75
2023-03-19T03:40:41.873Z,100612.02
2023-03-19T03:41:44.883Z,100614.38
2023-03-19T03:42:48.095Z,100617.66
2023-03-19T03:43:51.094Z,100618.02
2023-03-19T03:44:53.880Z,100614.58
2023-03-19T03:45:57.003Z,100613.38
2023-03-19T03:47:00.448Z,100613.95
2023-03-19T03:48:03.411Z,100615.95
2023-03-19T03:49:06.251Z,100609.77
2023-03-19T03:50:11.106Z,100616.52
2023-03-19T03:51:14.706Z,100619.72
2023-03-19T03:52:17.882Z,100609.57
2023-03-19T03:53:20.892Z,100609.57
2023-03-19T03:54:23.753Z,100612.36
2023-03-19T03:55:28.269Z,100612.48
2023-03-19T03:56:31.475Z,100613.86
2023-03-19T03:57:34.805Z,100613.44
2023-03-19T03:58:37.924Z,100611.02
2023-03-19T03:59:40.985Z,100610.94
2023-03-19T04:00:44.115Z,100609.29
2023-03-19T04:01:47.199Z,100606.55
2023-03-19T04:02:50.877Z,100609.94
2023-03-19T04:03:54.440Z,100608.21
2023-03-19T04:04:57.854Z,100604.92
2023-03-19T04:06:00.849Z,100607.27
2023-03-19T04:07:04.020Z,100603.60
2023-03-19T04:08:19.469Z,100604.62
2023-03-19T04:09:22.456Z,100606.40
2023-03-19T04:10:25.274Z,100606.98
2023-03-19T04:11:28.109Z,100606.90
2023-03-19T04:12:30.872Z,100605.84
2023-03-19T04:13:36.793Z,100603.86
2023-03-19T04:14:40.350Z,100603.48
2023-03-19T04:15:44.012Z,100605.17
2023-03-19T04:16:47.568Z,100601.68
2023-03-19T04:17:50.492Z,100598.77
2023-03-19T04:18:53.922Z,100602.34
2023-03-19T04:19:57.269Z,100599.59
2023-03-19T04:21:00.165Z,100600.20
2023-03-19T04:22:03.630Z,100602.09
2023-03-19T04:23:08.344Z,100598.15
2023-03-19T04:24:11.601Z,100595.73
2023-03-19T04:25:15.424Z,100598.45
2023-03-19T04:26:18.432Z,100599.67
2023-03-19T04:27:22.102Z,100599.27
2023-03-19T04:28:25.410Z,100602.92
2023-03-19T04:29:28.748Z,100602.34
2023-03-19T04:30:35.125Z,100599.02
2023-03-19T04:31:38.334Z,100596.49
2023-03-19T04:32:41.538Z,100598.67
2023-03-19T04:33:44.637Z,100596.63
2023-03-19T04:34:48.519Z,100596.02
2023-03-19T04:35:51.830Z,100597.95
2023-03-19T04:36:54.644Z,100599.64
2023-03-19T04:37:57.483Z,100596.59
2023-03-19T04:39:00.642Z,100596.23
2023-03-19T04:40:04.348Z,100595.38
2023-03-19T04:41:09.004Z,100598.38
2023-03-19T04:42:13.056Z,100602.21
2023-03-19T04:43:37.445Z,100598.04
2023-03-19T04:44:40.786Z,100594.90
2023-03-19T04:45:45.341Z,100595.98
2023-03-19T04:46:48.588Z,100594.23
2023-03-19T04:47:52.207Z,100596.16
2023-03-19T04:48:56.111Z,100595.86
2023-03-19T04:49:59.520Z,100600.68
2023-03-19T04:51:03.746Z,100592.17
2023-03-19T04:52:06.716Z,100595.30
2023-03-19T04:53:09.577Z,100599.31
2023-03-19T04:54:12.690Z,100603.20
2023-03-19T04:55:15.596Z,100601.15
2023-03-19T04:56:27.823Z,100603.16
2023-03-19T04:57:31.128Z,100597.05
2023-03-19T04:58:35.274Z,100602.67
2023-03-19T04:59:38.646Z,100605.95
2023-03-19T05:00:41.453Z,100598.69
2023-03-19T05:01:44.434Z,100605.30
2023-03-19T05:02:48.424Z,100606.92
2023-03-19T05:03:51.553Z,100606.20
2023-03-19T05:04:54.503Z,100605.80
2023-03-19T05:05:57.574Z,100616.19
2023-03-19T05:07:00.905Z,100610.23
2023-03-19T05:08:05.021Z,100604.14
2023-03-19T05:09:07.997Z,100614.23
2023-03-19T05:10:11.330Z,100608.90
2023-03-19T05:11:14.733Z,100607.09
2023-03-19T05:12:30.749Z,100614.86
2023-03-19T05:13:33.942Z,100612.38
2023-03-19T05:14:36.709Z,100620.41
2023-03-19T05:15:47.588Z,100620.52
2023-03-19T05:16:50.412Z,100620.34
2023-03-19T05:17:53.514Z,100615.90
2023-03-19T05:19:01.055Z,100613.92
2023-03-19T05:20:07.346Z,100622.00
2023-03-19T05:21:12.334Z,100622.73
2023-03-19T05:22:15.658Z,100624.60
2023-03-19T05:23:18.515Z,100627.02
2023-03-19T05:24:40.453Z,100625.09
2023-03-19T05:25:43.925Z,100617.64
2023-03-19T05:26:48.676Z,100624.89
2023-03-19T05:28:20.685Z,100618.09
2023-03-19T05:29:23.747Z,100623.98
2023-03-19T05:30:56.537Z,100619.67
2023-03-19T05:32:10.673Z,100623.38
2023-03-19T05:33:14.468Z,100617.22
2023-03-19T05:34:18.169Z,100618.91
2023-03-19T05:35:21.107Z,100618.20
2023-03-19T05:36:24.172Z,100617.16
2023-03-19T05:37:32.607Z,100621.34
2023-03-19T05:38:35.919Z,100622.30
2023-03-19T05:39:42.619Z,100623.35
2023-03-19T05:40:46.219Z,100618.26
2023-03-19T05:41:57.024Z,100616.52
2023-03-19T05:43:03.339Z,100620.39
2023-03-19T05:44:06.855Z,100617.10
2023-03-19T05:45:29.351Z,100615.53
2023-03-19T05:46:36.410Z,100614.27
2023-03-19T05:47:39.751Z,100613.11
2023-03-19T05:48:42.495Z,100621.13
2023-03-19T05:49:45.600Z,100614.36
2023-03-19T05:50:48.700Z,100614.17
2023-03-19T05:51:56.483Z,100619.48
2023-03-19T05:52:59.659Z,100607.96
2023-03-19T05:54:03.164Z,100612.64
2023-03-19T05:55:15.690Z,100616.91
2023-03-19T05:56:26.209Z,100615.56
2023-03-19T05:58:07.840Z,100618.67
2023-03-19T05:59:11.016Z,100613.15
2023-03-19T06:00:16.393Z,100612.58
2023-03-19T06:01:19.416Z,100616.88
2023-03-19T06:02:22.701Z,100612.27
2023-03-19T06:03:27.232Z,100618.45
2023-03-19T06:04:31.235Z,100618.69
2023-03-19T06:05:34.294Z,100618.58
2023-03-19T06:06:50.753Z,100615.02
2023-03-19T06:07:54.770Z,100612.33
2023-03-19T06:09:03.910Z,100607.05
2023-03-19T06:10:11.877Z,100614.30
2023-03-19T06:11:14.852Z,100614.16
2023-03-19T06:12:18.199Z,100610.89
2023-03-19T06:13:24.128Z,100615.16
2023-03-19T06:14:34.184Z,100617.66
2023-03-19T06:15:55.837Z,100618.89
2023-03-19T06:17:03.179Z,100617.08
2023-03-19T06:18:06.101Z,100613.20
2023-03-19T06:19:09.113Z,100616.16
2023-03-19T06:20:13.140Z,100615.42
2023-03-19T06:21:16.987Z,100618.32
2023-03-19T06:22:20.022Z,100618.03
2023-03-19T06:23:23.135Z,100623.19
2023-03-19T06:24:26.011Z,100623.48
2023-03-19T06:25:28.911Z,100626.30
2023-03-19T06:26:32.238Z,100623.95
2023-03-19T06:27:35.305Z,100621.38
2023-03-19T06:29:00.814Z,100621.66
2023-03-19T06:30:04.116Z,100617.77
2023-03-19T06:31:08.323Z,100616.91
2023-03-19T06:32:29.555Z,100625.66
2023-03-19T06:33:37.205Z,100623.58
2023-03-19T06:34:40.213Z,100618.35
2023-03-19T06:35:43.300Z,100619.02
2023-03-19T06:36:46.595Z,100619.59
2023-03-19T06:37:49.404Z,100616.45
2023-03-19T06:38:52.474Z,100621.33
2023-03-19T06:39:55.314Z,100620.02
2023-03-19T06:40:58.184Z,100625.11
2023-03-19T06:42:01.790Z,100622.39
2023-03-19T06:43:04.640Z,100624.14
2023-03-19T06:44:07.494Z,100627.28
2023-03-19T06:45:10.639Z,100624.44
2023-03-19T06:46:13.527Z,100631.80
2023-03-19T06:47:16.364Z,100631.23
2023-03-19T06:48:19.464Z,100627.45
2023-03-19T06:49:22.232Z,100631.27
2023-03-19T06:50:25.044Z,100628.79
2023-03-19T06:51:27.956Z,100628.31
2023-03-19T06:52:30.815Z,100632.21
2023-03-19T06:53:33.939Z,100627.98
2023-03-19T06:54:38.454Z,100633.30
2023-03-19T06:55:41.645Z,100626.83
2023-03-19T06:56:44.537Z,100628.27
2023-03-19T06:57:50.861Z,100630.08
2023-03-19T06:58:57.210Z,100628.53
2023-03-19T06:59:59.988Z,100633.75
2023-03-19T07:01:03.087Z,100635.86
2023-03-19T07:02:05.851Z,100636.34
2023-03-19T07:03:09.745Z,100634.81
2023-03-19T07:04:12.643Z,100638.23
2023-03-19T07:05:15.719Z,100639.59
2023-03-19T07:06:18.592Z,100635.89
2023-03-19T07:07:21.348Z,100633.17
2023-03-19T07:08:24.155Z,100636.89
2023-03-19T07:09:27.301Z,100638.33
2023-03-19T07:10:30.290Z,100636.20
2023-03-19T07:11:35.717Z,100636.64
2023-03-19T07:12:38.725Z,100636.60
2023-03-19T07:13:41.627Z,100635.59
2023-03-19T07:14:44.389Z,100637.44
2023-03-19T07:15:47.326Z,100640.10
2023-03-19T07:16:50.273Z,100639.77
2023-03-19T07:17:53.045Z,100635.85
2023-03-19T07:18:56.888Z,100639.33
2023-03-19T07:19:59.734Z,100637.59
2023-03-19T07:21:02.890Z,100639.38
2023-03-19T07:22:05.868Z,100644.27
2023-03-19T07:23:08.617Z,100636.96
2023-03-19T07:24:11.627Z,100640.94
2023-03-19T07:25:14.432Z,100637.88
2023-03-19T07:26:18.379Z,100636.63
2023-03-19T07:27:21.212Z,100641.36
2023-03-19T07:28:24.434Z,100640.38
2023-03-19T07:29:27.176Z,100642.56
2023-03-19T07:30:29.917Z,100637.02
2023-03-19T07:31:32.758Z,100638.77
2023-03-19T07:32:36.098Z,100634.50
2023-03-19T07:33:38.871Z,100629.05
2023-03-19T07:34:41.767Z,100630.81
2023-03-19T07:35:44.584Z,100630.30
2023-03-19T07:36:47.489Z,100629.48
2023-03-19T07:37:50.313Z,100637.64
2023-03-19T07:38:53.160Z,100633.22
2023-03-19T07:39:56.452Z,100632.77
2023-03-19T07:41:02.653Z,100631.84
2023-03-19T07:42:06.633Z,100634.13
2023-03-19T07:43:09.446Z,100634.97
2023-03-19T07:44:12.202Z,100636.31
2023-03-19T07:45:15.004Z,100635.36
2023-03-19T07:46:18.169Z,100644.81
2023-03-19T07:47:29.106Z,100648.45
2023-03-19T07:48:32.842Z,100643.06
2023-03-19T07:49:35.640Z,100647.27
2023-03-19T07:50:38.514Z,100645.31
2023-03-19T07:51:41.282Z,100643.85
2023-03-19T07:52:47.283Z,100636.31
2023-03-19T07:53:50.019Z,100634.98
2023-03-19T07:54:53.278Z,100641.42
2023-03-19T07:55:55.988Z,100636.67
2023-03-19T07:56:58.868Z,100648.16
2023-03-19T07:58:02.077Z,100641.13
2023-03-19T07:59:04.856Z,100638.81
2023-03-19T08:00:08.379Z,100641.40
2023-03-19T08:01:15.676Z,100635.55
2023-03-19T08:02:21.574Z,100633.93
2023-03-19T08:03:25.678Z,100627.77
2023-03-19T08:04:28.519Z,100627.53
2023-03-19T08:05:31.405Z,100627.46
2023-03-19T08:06:34.361Z,100626.91
2023-03-19T08:07:37.360Z,100630.66
2023-03-19T08:08:40.295Z,100630.02
2023-03-19T08:09:43.617Z,100628.54
2023-03-19T08:10:48.084Z,100629.02
2023-03-19T08:11:51.412Z,100625.52
2023-03-19T08:12:54.265Z,100626.07
2023-03-19T08:13:57.109Z,100627.62
2023-03-19T08:15:00.296Z,100627.16
2023-03-19T08:16:03.047Z,100627.23
2023-03-19T08:17:06.446Z,100627.01
2023-03-19T08:18:09.252Z,100630.41
2023-03-19T08:19:12.384Z,100632.53
2023-03-19T08:20:16.884Z,100629.23
2023-03-19T08:21:19.726Z,100630.05
2023-03-19T08:22:22.444Z,100633.73
2023-03-19T08:23:25.345Z,100631.95
2023-03-19T08:24:28.382Z,100633.55
2023-03-19T08:25:32.686Z,100632.48
2023-03-19T08:26:35.863Z,100633.30
2023-03-19T08:27:38.761Z,100631.82
2023-03-19T08:28:41.695Z,100631.52
2023-03-19T08:29:44.474Z,100631.64
2023-03-19T08:30:47.280Z,100634.98
2023-03-19T08:31:49.996Z,100633.36
2023-03-19T08:32:53.015Z,100633.27
2023-03-19T08:33:56.475Z,100631.86
2023-03-19T08:34:59.313Z,100628.22
2023-03-19T08:36:10.740Z,100627.25
2023-03-19T08:37:13.786Z,100640.22
2023-03-19T08:38:16.796Z,100631.15
2023-03-19T08:39:19.529Z,100629.91
2023-03-19T08:40:23.198Z,100628.73
2023-03-19T08:41:26.047Z,100629.73
2023-03-19T08:42:29.257Z,100629.92
2023-03-19T08:43:33.523Z,100628.11
2023-03-19T08:44:36.245Z,100628.25
2023-03-19T08:45:38.999Z,100630.71
2023-03-19T08:46:42.747Z,100628.11
2023-03-19T08:47:45.835Z,100623.28
2023-03-19T08:48:48.571Z,100627.38
2023-03-19T08:49:52.017Z,100624.50
2023-03-19T08:51:00.891Z,100627.31
2023-03-19T08:52:04.559Z,100630.70
2023-03-19T08:53:07.343Z,100621.84
2023-03-19T08:54:11.289Z,100618.71
2023-03-19T08:55:14.162Z,100621.09
2023-03-19T08:56:16.998Z,100622.08
2023-03-19T08:57:19.831Z,100622.92
2023-03-19T08:58:23.596Z,100622.13
2023-03-19T08:59:27.372Z,100631.37
2023-03-19T09:00:30.169Z,100625.92
2023-03-19T09:01:32.981Z,100624.27
2023-03-19T09:02:36.072Z,100625.80
2023-03-19T09:03:40.036Z,100623.59
2023-03-19T09:04:44.003Z,100624.67
2023-03-19T09:05:46.861Z,100619.73
2023-03-19T09:06:52.906Z,100617.79
2023-03-19T09:07:55.716Z,100623.41
2023-03-19T09:08:58.499Z,100621.84
2023-03-19T09:10:01.261Z,100622.55
2023-03-19T09:11:05.740Z,100624.95
2023-03-19T09:12:10.843Z,100627.20
2023-03-19T09:13:13.586Z,100622.55
2023-03-19T09:14:17.961Z,100622.12
2023-03-19T09:15:20.886Z,100621.58
2023-03-19T09:16:23.816Z,100623.80
2023-03-19T09:17:26.603Z,100622.20
2023-03-19T09:18:29.742Z,100626.20
2023-03-19T09:19:33.409Z,100622.86
2023-03-19T09:20:36.627Z,100619.77
2023-03-19T09:21:39.630Z,100622.30
2023-03-19T09:22:42.402Z,100620.38
2023-03-19T09:23:45.230Z,100619.02
2023-03-19T09:24:48.044Z,100620.70
2023-03-19T09:25:51.329Z,100618.79
2023-03-19T09:26:54.183Z,100615.02
2023-03-19T09:27:56.968Z,100620.17
2023-03-19T09:28:59.913Z,100619.63
2023-03-19T09:30:03.075Z,100615.95
2023-03-19T09:31:09.866Z,100614.95
2023-03-19T09:32:12.792Z,100609.92
2023-03-19T09:33:17.171Z,100612.38
2023-03-19T09:34:20.200Z,100611.29
2023-03-19T09:35:23.198Z,100610.02
2023-03-19T09:36:26.638Z,100611.48
2023-03-19T09:37:29.438Z,100611.06
2023-03-19T09:38:32.175Z,100612.27
2023-03-19T09:39:35.197Z,100611.50
2023-03-19T09:40:42.914Z,100610.85
2023-03-19T09:42:07.336Z,100612.63
2023-03-19T09:43:34.564Z,100607.86
2023-03-19T09:44:39.871Z,100606.42
2023-03-19T09:45:42.644Z,100602.04
2023-03-19T09:46:56.236Z,100599.52
2023-03-19T09:48:13.648Z,100602.38
2023-03-19T09:49:26.120Z,100605.07
2023-03-19T09:50:29.688Z,100604.62
2023-03-19T09:51:58.358Z,100602.08
2023-03-19T09:53:23.920Z,100598.88
2023-03-19T09:54:42.781Z,100596.90
2023-03-19T09:55:51.484Z,100598.97
2023-03-19T09:56:54.936Z,100599.73
2023-03-19T09:57:59.015Z,100599.16
2023-03-19T09:59:03.292Z,100598.71
2023-03-19T10:00:24.083Z,100601.09
2023-03-19T10:01:34.402Z,100598.77
2023-03-19T10:02:43.165Z,100595.41
2023-03-19T10:04:20.115Z,100601.88
2023-03-19T10:05:28.921Z,100598.68
2023-03-19T10:06:37.296Z,100597.80
2023-03-19T10:08:06.006Z,100601.54
2023-03-19T10:09:27.689Z,100603.46
2023-03-19T10:10:45.766Z,100603.98
2023-03-19T10:11:56.268Z,100603.61
2023-03-19T10:13:22.024Z,100604.05
2023-03-19T10:14:43.398Z,100605.89
2023-03-19T10:15:47.311Z,100606.65
2023-03-19T10:16:54.685Z,100606.15
2023-03-19T10:18:04.232Z,100603.46
2023-03-19T10:19:06.922Z,100604.90
2023-03-19T10:20:22.969Z,100604.17
2023-03-19T10:21:29.859Z,100603.23
2023-03-19T10:22:39.985Z,100601.20
2023-03-19T10:24:16.679Z,100601.91
2023-03-19T10:25:23.114Z,100599.04
2023-03-19T10:26:31.350Z,100594.83
2023-03-19T10:27:34.241Z,100596.58
2023-03-19T10:28:37.680Z,100598.92
2023-03-19T10:29:43.660Z,100597.30
2023-03-19T10:31:07.778Z,100594.30
2023-03-19T10:32:21.267Z,100591.71
2023-03-19T10:33:29.072Z,100592.85
2023-03-19T10:34:33.075Z,100590.66
2023-03-19T10:35:44.482Z,100589.02
2023-03-19T10:36:47.274Z,100589.95
2023-03-19T10:37:50.975Z,100589.62
2023-03-19T10:38:54.946Z,100591.10
2023-03-19T10:40:00.323Z,100586.89
2023-03-19T10:41:54.402Z,100592.11
2023-03-19T10:43:22.791Z,100586.89
2023-03-19T10:44:30.580Z,100589.27
2023-03-19T10:45:37.891Z,100589.99
2023-03-19T10:46:41.854Z,100594.86
2023-03-19T10:47:44.912Z,100592.19
2023-03-19T10:48:47.899Z,100591.84
2023-03-19T10:49:51.091Z,100589.63
2023-03-19T10:51:06.017Z,100588.68
2023-03-19T10:52:38.200Z,100587.08
2023-03-19T10:53:41.554Z,100587.98
2023-03-19T10:54:46.016Z,100586.20
2023-03-19T10:56:01.490Z,100588.98
2023-03-19T10:57:04.424Z,100588.02
2023-03-19T10:58:17.009Z,100581.95
2023-03-19T10:59:27.021Z,100581.36
2023-03-19T11:00:33.400Z,100577.45
2023-03-19T11:01:40.737Z,100581.27
2023-03-19T11:02:49.483Z,100582.34
2023-03-19T11:03:57.403Z,100581.55
2023-03-19T11:05:29.311Z,100581.63
2023-03-19T11:06:36.130Z,100579.10
2023-03-19T11:07:39.202Z,100582.50
2023-03-19T11:08:42.920Z,100576.67
2023-03-19T11:09:50.306Z,100569.81
2023-03-19T11:10:53.420Z,100565.42
2023-03-19T11:11:59.072Z,100564.83
2023-03-19T11:13:24.632Z,100565.02
2023-03-19T11:14:38.444Z,100565.89
2023-03-19T11:15:41.431Z,100565.38
2023-03-19T11:17:17.347Z,100566.83
2023-03-19T11:18:27.690Z,100560.06
2023-03-19T11:19:41.723Z,100562.75
2023-03-19T11:20:58.405Z,100559.48
2023-03-19T11:22:19.641Z,100563.52
2023-03-19T11:23:31.632Z,100565.03
2023-03-19T11:24:41.144Z,100564.34
2023-03-19T11:25:52.254Z,100561.46
2023-03-19T11:26:57.440Z,100552.50
2023-03-19T11:28:26.741Z,100549.81
2023-03-19T11:29:29.911Z,100548.52
2023-03-19T11:31:00.267Z,100548.54
2023-03-19T11:32:27.638Z,100548.31
2023-03-19T11:33:45.151Z,100548.45
2023-03-19T11:35:01.572Z,100546.56
2023-03-19T11:36:33.881Z,100550.84
2023-03-19T11:37:57.351Z,100553.30
2023-03-19T11:39:12.378Z,100549.41
2023-03-19T11:40:25.390Z,100547.14
2023-03-19T11:42:05.876Z,100540.77
2023-03-19T11:43:17.935Z,100539.17
2023-03-19T11:44:40.326Z,100533.61
2023-03-19T11:46:12.959Z,100534.60
2023-03-19T11:47:32.467Z,100533.41
2023-03-19T11:48:46.246Z,100537.17
2023-03-19T11:49:53.197Z,100533.27
2023-03-19T11:51:32.405Z,100531.11
2023-03-19T11:53:19.940Z,100536.87
2023-03-19T11:54:37.032Z,100535.52
2023-03-19T11:55:58.597Z,100537.92
2023-03-19T11:57:08.804Z,100534.95
2023-03-19T11:58:24.372Z,100533.66
2023-03-19T11:59:43.559Z,100534.04
2023-03-19T12:00:55.157Z,100526.77
2023-03-19T12:02:17.116Z,100524.42
2023-03-19T12:03:48.167Z,100526.56
2023-03-19T12:05:12.782Z,100529.29
2023-03-19T12:06:48.673Z,100528.66
2023-03-19T12:08:05.799Z,100529.15
2023-03-19T12:09:23.589Z,100530.09
2023-03-19T12:10:30.302Z,100531.30
2023-03-19T12:11:36.003Z,100529.16
2023-03-19T12:13:06.259Z,100526.30
2023-03-19T12:14:27.931Z,100524.50
2023-03-19T12:15:46.953Z,100526.73
2023-03-19T12:17:07.888Z,100521.16
2023-03-19T12:18:32.043Z,100517.52
2023-03-19T12:19:50.777Z,100518.10
2023-03-19T12:21:05.331Z,100515.19
2023-03-19T12:22:45.443Z,100515.98
2023-03-19T12:24:18.315Z,100515.67
2023-03-19T12:26:06.155Z,100512.81
2023-03-19T12:27:28.104Z,100514.55
2023-03-19T12:28:39.614Z,100510.18
2023-03-19T12:29:46.631Z,100515.90
2023-03-19T12:30:58.145Z,100513.95
2023-03-19T12:32:00.938Z,100509.70
2023-03-19T12:33:18.758Z,100512.53
2023-03-19T12:34:49.240Z,100511.98
2023-03-19T12:35:56.277Z,100510.31
2023-03-19T12:37:14.332Z,100507.84
2023-03-19T12:38:24.285Z,100507.09
2023-03-19T12:39:34.647Z,100507.69
2023-03-19T12:40:41.828Z,100506.62
2023-03-19T12:41:48.446Z,100505.17
2023-03-19T12:42:51.977Z,100506.77
2023-03-19T12:44:19.237Z,100507.04
2023-03-19T12:45:41.171Z,100498.23
2023-03-19T12:46:51.930Z,100500.98
2023-03-19T12:48:00.903Z,100497.10
2023-03-19T12:49:11.240Z,100498.96